createdAt,value
2018-10-18T00:02:10.265Z,71.46
2018-10-18T00:04:39.787Z,71.50
2018-10-18T00:07:09.343Z,72.47
2018-10-18T00:09:38.846Z,72.71
2018-10-18T00:12:08.491Z,72.04
2018-10-18T00:14:37.991Z,72.07
2018-10-18T00:17:12.488Z,72.00
2018-10-18T00:19:42.019Z,71.56
2018-10-18T00:22:11.562Z,71.80
2018-10-18T00:24:41.088Z,71.14
2018-10-18T00:27:10.620Z,71.00
2018-10-18T00:29:40.182Z,70.83
2018-10-18T00:32:09.790Z,70.37
2018-10-18T00:34:39.242Z,70.52
2018-10-18T00:37:08.746Z,69.64
2018-10-18T00:39:38.274Z,69.80
2018-10-18T00:42:07.844Z,69.66
2018-10-18T00:44:37.327Z,70.27
2018-10-18T00:47:06.899Z,70.11
2018-10-18T00:49:36.544Z,69.88
2018-10-18T00:52:06.332Z,70.07
2018-10-18T00:54:35.891Z,70.24
2018-10-18T00:57:05.458Z,70.46
2018-10-18T00:59:35.013Z,69.70
2018-10-18T01:02:04.596Z,69.95
2018-10-18T01:04:34.111Z,70.26
2018-10-18T01:07:03.718Z,70.07
2018-10-18T01:09:33.239Z,70.41
2018-10-18T01:12:02.842Z,70.31
2018-10-18T01:14:32.366Z,69.87
2018-10-18T01:17:03.372Z,70.48
2018-10-18T01:19:36.975Z,69.79
2018-10-18T01:22:07.566Z,70.33
2018-10-18T01:24:37.634Z,70.45
2018-10-18T01:27:07.696Z,70.06
2018-10-18T01:29:37.242Z,70.58
2018-10-18T01:32:07.378Z,70.42
2018-10-18T01:34:36.887Z,70.02
2018-10-18T01:37:06.555Z,70.74
2018-10-18T01:39:36.047Z,70.16
2018-10-18T01:42:06.509Z,70.89
2018-10-18T01:44:36.033Z,70.82
2018-10-18T01:47:05.658Z,69.96
2018-10-18T01:49:35.172Z,70.73
2018-10-18T01:52:04.832Z,70.51
2018-10-18T01:54:34.390Z,70.50
2018-10-18T01:57:03.982Z,70.22
2018-10-18T01:59:33.511Z,70.57
2018-10-18T02:02:03.108Z,70.77
2018-10-18T02:04:32.647Z,70.88
2018-10-18T02:07:02.210Z,70.43
2018-10-18T02:09:31.742Z,70.91
2018-10-18T02:12:01.336Z,70.06
2018-10-18T02:14:30.864Z,70.12
2018-10-18T02:17:00.434Z,70.22
2018-10-18T02:19:29.947Z,70.45
2018-10-18T02:21:59.523Z,70.51
2018-10-18T02:24:29.060Z,70.01
2018-10-18T02:26:58.602Z,70.33
2018-10-18T02:29:28.094Z,69.79
2018-10-18T02:31:57.663Z,70.19
2018-10-18T02:34:27.186Z,69.68
2018-10-18T02:36:56.731Z,69.56
2018-10-18T02:39:26.302Z,70.31
2018-10-18T02:41:55.901Z,70.06
2018-10-18T02:44:25.448Z,69.69
2018-10-18T02:46:55.002Z,70.11
2018-10-18T02:49:24.539Z,70.16
2018-10-18T02:51:54.082Z,69.87
2018-10-18T02:54:23.622Z,69.97
2018-10-18T02:56:53.171Z,69.69
2018-10-18T02:59:22.674Z,69.51
2018-10-18T03:01:52.223Z,69.44
2018-10-18T03:04:21.724Z,69.89
2018-10-18T03:06:51.272Z,69.86
2018-10-18T03:09:20.775Z,70.00
2018-10-18T03:11:50.323Z,69.30
2018-10-18T03:14:19.823Z,69.98
2018-10-18T03:16:49.398Z,69.39
2018-10-18T03:19:18.977Z,69.37
2018-10-18T03:21:48.538Z,69.58
2018-10-18T03:24:18.137Z,69.85
2018-10-18T03:26:47.682Z,69.01
2018-10-18T03:29:17.227Z,69.75
2018-10-18T03:31:46.754Z,69.49
2018-10-18T03:34:16.294Z,69.31
2018-10-18T03:36:45.790Z,69.15
2018-10-18T03:39:15.319Z,69.04
2018-10-18T03:41:44.844Z,69.51
2018-10-18T03:44:14.383Z,68.91
2018-10-18T03:46:43.880Z,69.49
2018-10-18T03:49:13.407Z,69.48
2018-10-18T03:51:43.782Z,69.86
2018-10-18T03:54:13.347Z,69.60
2018-10-18T03:56:42.904Z,69.30
2018-10-18T03:59:12.426Z,69.46
2018-10-18T04:01:41.959Z,69.80
2018-10-18T04:04:11.499Z,69.70
2018-10-18T04:06:41.056Z,69.88
2018-10-18T04:09:11.194Z,70.06
2018-10-18T04:11:41.455Z,69.62
2018-10-18T04:14:10.955Z,70.03
2018-10-18T04:16:40.491Z,69.50
2018-10-18T04:19:10.042Z,69.86
2018-10-18T04:21:39.624Z,69.64
2018-10-18T04:24:09.170Z,69.89
2018-10-18T04:26:38.719Z,69.56
2018-10-18T04:29:08.215Z,69.99
2018-10-18T04:31:37.754Z,69.66
2018-10-18T04:34:07.357Z,69.88
2018-10-18T04:36:36.931Z,69.75
2018-10-18T04:39:09.190Z,69.85
2018-10-18T04:41:38.700Z,69.37
2018-10-18T04:44:08.308Z,69.23
2018-10-18T04:46:37.846Z,69.16
2018-10-18T04:49:07.423Z,69.56
2018-10-18T04:51:37.006Z,69.35
2018-10-18T04:54:06.621Z,69.24
2018-10-18T04:56:36.158Z,69.23
2018-10-18T04:59:05.844Z,68.98
2018-10-18T05:01:35.367Z,68.85
2018-10-18T05:04:05.164Z,68.61
2018-10-18T05:06:34.666Z,68.99
2018-10-18T05:09:05.757Z,69.40
2018-10-18T05:11:35.255Z,69.52
2018-10-18T05:14:04.980Z,69.19
2018-10-18T05:16:34.478Z,68.92
2018-10-18T05:19:04.229Z,68.85
2018-10-18T05:21:33.755Z,68.37
2018-10-18T05:24:03.511Z,68.64
2018-10-18T05:26:33.174Z,68.99
2018-10-18T05:29:02.879Z,68.63
2018-10-18T05:31:32.485Z,69.09
2018-10-18T05:34:01.964Z,68.88
2018-10-18T05:36:31.530Z,69.33
2018-10-18T05:39:01.264Z,68.42
2018-10-18T05:41:30.948Z,68.83
2018-10-18T05:44:00.510Z,67.95
2018-10-18T05:46:30.133Z,68.50
2018-10-18T05:48:59.696Z,67.83
2018-10-18T05:51:29.262Z,67.83
2018-10-18T05:53:58.995Z,67.78
2018-10-18T05:56:28.436Z,67.90
2018-10-18T05:58:58.763Z,67.15
2018-10-18T06:01:28.271Z,66.78
2018-10-18T06:03:57.831Z,66.26
2018-10-18T06:06:27.364Z,65.05
2018-10-18T06:08:56.999Z,65.22
2018-10-18T06:11:28.651Z,65.29
2018-10-18T06:13:58.307Z,65.28
2018-10-18T06:16:27.907Z,64.84
2018-10-18T06:18:57.480Z,65.19
2018-10-18T06:21:27.046Z,64.56
2018-10-18T06:23:56.561Z,64.63
2018-10-18T06:26:26.183Z,64.55
2018-10-18T06:28:55.779Z,64.65
2018-10-18T06:31:25.289Z,64.19
2018-10-18T06:33:54.834Z,64.04
2018-10-18T06:36:24.367Z,63.44
2018-10-18T06:38:53.898Z,63.61
2018-10-18T06:41:23.397Z,63.92
2018-10-18T06:43:52.935Z,63.67
2018-10-18T06:46:22.527Z,63.38
2018-10-18T06:48:52.079Z,63.46
2018-10-18T06:51:21.622Z,63.66
2018-10-18T06:53:51.169Z,63.66
2018-10-18T06:56:20.734Z,63.02
2018-10-18T06:58:50.298Z,63.05
2018-10-18T07:01:19.912Z,62.55
2018-10-18T07:03:49.478Z,62.02
2018-10-18T07:06:19.066Z,62.79
2018-10-18T07:08:48.707Z,62.99
2018-10-18T07:11:18.279Z,62.72
2018-10-18T07:13:47.791Z,62.76
2018-10-18T07:16:17.371Z,62.97
2018-10-18T07:18:46.959Z,63.24
2018-10-18T07:21:16.487Z,63.46
2018-10-18T07:23:46.044Z,63.12
2018-10-18T07:26:15.594Z,63.90
2018-10-18T07:28:45.194Z,63.74
2018-10-18T07:31:14.782Z,63.95
2018-10-18T07:33:44.303Z,63.96
2018-10-18T07:36:13.991Z,63.33
2018-10-18T07:38:43.444Z,63.18
2018-10-18T07:41:13.054Z,63.80
2018-10-18T07:43:42.579Z,63.57
2018-10-18T07:46:12.171Z,63.71
2018-10-18T07:48:41.710Z,63.49
2018-10-18T07:51:11.291Z,63.50
2018-10-18T07:53:40.843Z,62.86
2018-10-18T07:56:10.366Z,62.65
2018-10-18T07:58:39.890Z,62.76
2018-10-18T08:01:09.394Z,62.23
2018-10-18T08:03:38.926Z,62.60
2018-10-18T08:06:08.464Z,62.19
2018-10-18T08:08:38.031Z,61.65
2018-10-18T08:11:07.633Z,60.88
2018-10-18T08:13:37.159Z,60.98
2018-10-18T08:16:07.706Z,60.90
2018-10-18T08:18:37.244Z,60.76
2018-10-18T08:21:07.139Z,60.51
2018-10-18T08:23:36.683Z,60.11
2018-10-18T08:26:06.331Z,60.22
2018-10-18T08:28:35.871Z,60.29
2018-10-18T08:31:05.605Z,60.41
2018-10-18T08:33:35.170Z,60.20
2018-10-18T08:36:04.811Z,60.16
2018-10-18T08:38:34.327Z,60.45
2018-10-18T08:41:03.891Z,59.44
2018-10-18T08:43:33.466Z,60.01
2018-10-18T08:46:03.023Z,59.76
2018-10-18T08:48:32.624Z,60.02
2018-10-18T08:51:02.188Z,59.44
2018-10-18T08:53:31.731Z,60.02
2018-10-18T08:56:01.315Z,60.26
2018-10-18T08:58:30.851Z,59.72
2018-10-18T09:01:00.454Z,60.24
2018-10-18T09:03:29.951Z,60.17
2018-10-18T09:05:59.621Z,59.69
2018-10-18T09:08:29.074Z,59.77
2018-10-18T09:10:58.663Z,59.87
2018-10-18T09:13:28.166Z,59.22
2018-10-18T09:15:57.835Z,59.42
2018-10-18T09:18:27.338Z,59.29
2018-10-18T09:20:56.918Z,58.89
2018-10-18T09:23:26.442Z,58.46
2018-10-18T09:25:56.000Z,58.63
2018-10-18T09:28:25.477Z,58.82
2018-10-18T09:30:55.060Z,58.03
2018-10-18T09:33:24.547Z,57.52
2018-10-18T09:35:54.069Z,57.33
2018-10-18T09:38:23.754Z,57.13
2018-10-18T09:40:53.291Z,56.58
2018-10-18T09:43:22.879Z,56.43
2018-10-18T09:45:52.454Z,55.67
2018-10-18T09:48:22.010Z,55.56
2018-10-18T09:50:51.561Z,55.04
2018-10-18T09:53:21.192Z,54.45
2018-10-18T09:55:50.795Z,54.42
2018-10-18T09:58:20.394Z,54.46
2018-10-18T10:00:55.028Z,53.65
2018-10-18T10:03:24.537Z,53.62
2018-10-18T10:05:54.162Z,52.89
2018-10-18T10:08:23.730Z,52.68
2018-10-18T10:10:53.268Z,51.88
2018-10-18T10:13:22.958Z,50.77
2018-10-18T10:15:52.353Z,51.77
2018-10-18T10:18:21.979Z,51.12
2018-10-18T10:20:51.456Z,50.45
2018-10-18T10:23:21.008Z,50.68
2018-10-18T10:25:50.502Z,50.26
2018-10-18T10:28:19.998Z,50.46
2018-10-18T10:30:49.504Z,50.22
2018-10-18T10:33:19.100Z,49.94
2018-10-18T10:35:48.597Z,49.76
2018-10-18T10:38:18.152Z,50.83
2018-10-18T10:40:47.718Z,50.38
2018-10-18T10:43:17.271Z,50.19
2018-10-18T10:45:47.013Z,49.82
2018-10-18T10:48:16.633Z,49.72
2018-10-18T10:50:46.196Z,48.93
2018-10-18T10:53:15.732Z,48.98
2018-10-18T10:55:45.323Z,49.27
2018-10-18T10:58:15.179Z,48.71
2018-10-18T11:01:18.549Z,48.58
2018-10-18T11:03:48.624Z,47.59
2018-10-18T11:06:18.317Z,48.23
2018-10-18T11:08:47.791Z,47.89
2018-10-18T11:11:17.953Z,47.97
2018-10-18T11:13:47.503Z,47.67
2018-10-18T11:16:17.064Z,47.07
2018-10-18T11:18:46.632Z,46.80
2018-10-18T11:21:17.515Z,47.36
2018-10-18T11:23:47.031Z,46.67
2018-10-18T11:26:16.691Z,47.39
2018-10-18T11:28:46.189Z,46.40
2018-10-18T11:31:15.784Z,46.71
2018-10-18T11:33:45.308Z,47.02
2018-10-18T11:36:15.015Z,46.10
2018-10-18T11:38:44.749Z,46.57
2018-10-18T11:41:14.277Z,46.65
2018-10-18T11:43:43.855Z,47.02
2018-10-18T11:46:13.366Z,46.98
2018-10-18T11:48:42.936Z,46.41
2018-10-18T11:51:12.483Z,46.95
2018-10-18T11:53:42.053Z,47.07
2018-10-18T11:56:11.683Z,46.90
2018-10-18T11:58:41.167Z,47.28
2018-10-18T12:01:10.829Z,47.04
2018-10-18T12:03:40.342Z,47.28
2018-10-18T12:06:09.879Z,47.00
2018-10-18T12:08:39.371Z,47.14
2018-10-18T12:11:08.963Z,46.20
2018-10-18T12:13:38.460Z,45.63
2018-10-18T12:16:08.013Z,46.65
2018-10-18T12:18:37.583Z,46.03
2018-10-18T12:21:07.140Z,46.30
2018-10-18T12:23:36.666Z,46.28
2018-10-18T12:26:06.307Z,46.66
2018-10-18T12:28:35.862Z,46.60
2018-10-18T12:31:05.547Z,46.79
2018-10-18T12:33:35.099Z,46.89
2018-10-18T12:36:04.716Z,46.09
2018-10-18T12:38:34.268Z,46.84
2018-10-18T12:41:03.926Z,47.19
2018-10-18T12:43:33.419Z,47.14
2018-10-18T12:46:02.968Z,47.83
2018-10-18T12:48:32.596Z,47.05
2018-10-18T12:51:02.073Z,47.56
2018-10-18T12:53:31.622Z,47.10
2018-10-18T12:56:01.208Z,47.18
2018-10-18T12:58:30.746Z,47.37
2018-10-18T13:01:00.302Z,47.08
2018-10-18T13:03:29.891Z,46.59
2018-10-18T13:05:59.436Z,46.87
2018-10-18T13:08:28.999Z,46.77
2018-10-18T13:10:58.555Z,46.61
2018-10-18T13:13:28.087Z,46.57
2018-10-18T13:15:57.610Z,47.13
2018-10-18T13:18:27.114Z,46.77
2018-10-18T13:20:56.656Z,47.20
2018-10-18T13:23:26.226Z,47.80
2018-10-18T13:25:55.794Z,47.59
2018-10-18T13:28:25.326Z,47.86
2018-10-18T13:30:54.987Z,48.07
2018-10-18T13:33:24.553Z,48.68
2018-10-18T13:35:54.182Z,49.25
2018-10-18T13:38:23.697Z,49.33
2018-10-18T13:40:53.387Z,49.32
2018-10-18T13:43:22.822Z,49.68
2018-10-18T13:45:52.398Z,49.75
2018-10-18T13:48:21.935Z,49.32
2018-10-18T13:50:51.490Z,49.54
2018-10-18T13:53:20.994Z,50.27
2018-10-18T13:55:50.654Z,50.32
2018-10-18T13:58:20.170Z,50.75
2018-10-18T14:00:49.882Z,51.76
2018-10-18T14:03:19.538Z,51.99
2018-10-18T14:05:49.199Z,52.48
2018-10-18T14:08:18.832Z,52.81
2018-10-18T14:10:48.362Z,53.38
2018-10-18T14:13:17.939Z,53.70
2018-10-18T14:15:47.514Z,53.70
2018-10-18T14:18:17.046Z,54.56
2018-10-18T14:20:46.639Z,54.81
2018-10-18T14:23:16.326Z,54.23
2018-10-18T14:25:45.955Z,55.21
2018-10-18T14:28:15.605Z,55.52
2018-10-18T14:30:45.276Z,55.82
2018-10-18T14:33:14.798Z,55.43
2018-10-18T14:35:44.348Z,56.15
2018-10-18T14:38:13.956Z,55.99
2018-10-18T14:40:43.430Z,55.99
2018-10-18T14:43:12.989Z,55.96
2018-10-18T14:45:42.507Z,56.07
2018-10-18T14:48:12.067Z,56.07
2018-10-18T14:50:41.772Z,56.57
2018-10-18T14:53:11.408Z,56.28
2018-10-18T14:55:40.922Z,56.63
2018-10-18T14:58:10.480Z,57.10
2018-10-18T15:00:39.992Z,57.33
2018-10-18T15:03:09.535Z,57.24
2018-10-18T15:05:39.038Z,58.28
2018-10-18T15:08:08.664Z,58.06
2018-10-18T15:10:38.123Z,57.77
2018-10-18T15:13:07.677Z,57.76
2018-10-18T15:15:37.228Z,58.22
2018-10-18T15:18:06.786Z,57.99
2018-10-18T15:20:36.419Z,58.44
2018-10-18T15:23:05.980Z,59.08
2018-10-18T15:25:35.647Z,58.74
2018-10-18T15:28:05.078Z,58.74
2018-10-18T15:30:34.606Z,58.72
2018-10-18T15:33:04.151Z,59.44
2018-10-18T15:35:33.706Z,59.47
2018-10-18T15:38:03.365Z,59.36
2018-10-18T15:40:32.803Z,59.82
2018-10-18T15:43:02.299Z,60.13
2018-10-18T15:45:31.903Z,59.63
2018-10-18T15:48:01.439Z,59.97
2018-10-18T15:50:30.926Z,59.99
2018-10-18T15:53:00.573Z,60.36
2018-10-18T15:55:30.054Z,60.81
2018-10-18T15:57:59.703Z,60.64
2018-10-18T16:00:29.199Z,60.30
2018-10-18T16:02:58.779Z,60.72
2018-10-18T16:05:28.267Z,60.34
2018-10-18T16:07:57.794Z,60.56
2018-10-18T16:10:27.322Z,60.56
2018-10-18T16:12:56.850Z,61.39
2018-10-18T16:15:26.346Z,60.46
2018-10-18T16:17:55.956Z,61.41
2018-10-18T16:20:25.387Z,61.30
2018-10-18T16:22:54.912Z,61.46
2018-10-18T16:25:24.460Z,61.70
2018-10-18T16:27:54.027Z,61.09
2018-10-18T16:30:23.523Z,61.18
2018-10-18T16:32:53.052Z,61.43
2018-10-18T16:35:22.587Z,61.03
2018-10-18T16:37:52.610Z,61.11
2018-10-18T16:40:22.127Z,60.84
2018-10-18T16:42:51.652Z,61.97
2018-10-18T16:45:21.184Z,61.27
2018-10-18T16:47:50.852Z,61.47
2018-10-18T16:50:20.274Z,61.59
2018-10-18T16:52:49.822Z,61.72
2018-10-18T16:55:19.327Z,61.51
2018-10-18T16:57:48.861Z,62.09
2018-10-18T17:00:18.535Z,61.50
2018-10-18T17:02:47.971Z,61.63
2018-10-18T17:05:17.534Z,61.81
2018-10-18T17:07:47.083Z,62.24
2018-10-18T17:10:16.696Z,62.33
2018-10-18T17:12:46.170Z,62.46
2018-10-18T17:15:15.675Z,62.17
2018-10-18T17:17:45.273Z,62.57
2018-10-18T17:20:14.897Z,62.12
2018-10-18T17:22:44.396Z,62.33
2018-10-18T17:25:13.968Z,62.47
2018-10-18T17:27:43.558Z,62.66
2018-10-18T17:30:13.244Z,62.85
2018-10-18T17:32:42.679Z,62.20
2018-10-18T17:35:12.164Z,63.03
2018-10-18T17:37:41.659Z,63.15
2018-10-18T17:40:11.408Z,62.89
2018-10-18T17:42:40.890Z,63.26
2018-10-18T17:45:11.735Z,62.87
2018-10-18T17:47:41.739Z,63.19
2018-10-18T17:50:11.682Z,63.08
2018-10-18T17:52:41.179Z,63.74
2018-10-18T17:55:10.776Z,63.99
2018-10-18T17:57:40.271Z,63.90
2018-10-18T18:00:12.052Z,64.37
2018-10-18T18:02:41.959Z,64.56
2018-10-18T18:05:12.630Z,64.71
2018-10-18T18:07:42.248Z,64.73
2018-10-18T18:10:13.898Z,64.33
2018-10-18T18:12:43.465Z,64.50
2018-10-18T18:15:13.013Z,65.35
2018-10-18T18:17:42.508Z,64.72
2018-10-18T18:20:12.946Z,65.07
2018-10-18T18:22:42.520Z,65.64
2018-10-18T18:25:12.754Z,65.34
2018-10-18T18:27:42.254Z,65.87
2018-10-18T18:30:13.370Z,65.98
2018-10-18T18:32:43.106Z,66.11
2018-10-18T18:35:12.676Z,66.12
2018-10-18T18:37:42.232Z,66.20
2018-10-18T18:40:11.810Z,65.66
2018-10-18T18:42:41.582Z,65.73
2018-10-18T18:45:45.446Z,65.74
2018-10-18T18:48:15.014Z,66.42
2018-10-18T18:50:44.571Z,66.31
2018-10-18T18:53:14.194Z,66.68
2018-10-18T18:55:43.650Z,66.20
2018-10-18T18:58:13.182Z,66.63
2018-10-18T19:00:42.732Z,66.88
2018-10-18T19:03:12.258Z,66.36
2018-10-18T19:05:41.811Z,67.15
2018-10-18T19:08:11.354Z,67.07
2018-10-18T19:10:40.883Z,67.18
2018-10-18T19:13:10.540Z,66.88
2018-10-18T19:15:40.082Z,67.16
2018-10-18T19:18:09.630Z,67.08
2018-10-18T19:20:39.135Z,66.97
2018-10-18T19:23:08.699Z,67.50
2018-10-18T19:25:38.182Z,67.44
2018-10-18T19:28:07.727Z,67.60
2018-10-18T19:30:37.241Z,67.38
2018-10-18T19:33:06.776Z,67.83
2018-10-18T19:35:36.338Z,67.78
2018-10-18T19:38:05.922Z,67.79
2018-10-18T19:40:35.467Z,67.24
2018-10-18T19:43:05.114Z,67.49
2018-10-18T19:45:34.653Z,67.22
2018-10-18T19:48:04.268Z,67.75
2018-10-18T19:50:33.764Z,68.27
2018-10-18T19:53:03.393Z,68.32
2018-10-18T19:55:32.835Z,68.29
2018-10-18T19:58:02.421Z,67.81
2018-10-18T20:00:31.975Z,67.66
2018-10-18T20:03:01.558Z,67.91
2018-10-18T20:05:31.103Z,68.29
2018-10-18T20:08:00.623Z,67.96
2018-10-18T20:10:30.156Z,68.28
2018-10-18T20:12:59.766Z,68.73
2018-10-18T20:15:29.223Z,68.88
2018-10-18T20:17:58.802Z,68.92
2018-10-18T20:20:29.336Z,68.57
2018-10-18T20:22:58.971Z,68.45
2018-10-18T20:25:28.491Z,68.79
2018-10-18T20:27:58.095Z,69.04
2018-10-18T20:30:27.598Z,69.25
2018-10-18T20:32:57.155Z,69.11
2018-10-18T20:35:26.689Z,68.75
2018-10-18T20:37:56.207Z,69.23
2018-10-18T20:40:25.708Z,69.24
2018-10-18T20:42:55.235Z,69.42
2018-10-18T20:45:29.588Z,69.07
2018-10-18T20:47:59.271Z,69.66
2018-10-18T20:50:28.706Z,69.30
2018-10-18T20:52:58.258Z,69.36
2018-10-18T20:55:27.828Z,69.76
2018-10-18T20:57:57.400Z,69.03
2018-10-18T21:00:26.919Z,69.60
2018-10-18T21:02:56.568Z,69.75
2018-10-18T21:05:26.237Z,69.48
2018-10-18T21:07:55.795Z,69.12
2018-10-18T21:10:25.339Z,69.61
2018-10-18T21:12:54.839Z,69.67
2018-10-18T21:15:24.466Z,69.43
2018-10-18T21:17:53.966Z,69.75
2018-10-18T21:20:23.506Z,69.26
2018-10-18T21:22:53.087Z,69.71
2018-10-18T21:25:22.654Z,69.92
2018-10-18T21:27:52.215Z,70.00
2018-10-18T21:30:21.762Z,69.24
2018-10-18T21:32:51.313Z,69.33
2018-10-18T21:35:20.897Z,69.35
2018-10-18T21:37:50.398Z,69.37
2018-10-18T21:40:19.934Z,69.27
2018-10-18T21:42:49.478Z,69.27
2018-10-18T21:45:19.160Z,69.11
2018-10-18T21:47:48.790Z,69.36
2018-10-18T21:50:18.336Z,69.09
2018-10-18T21:52:47.846Z,68.66
2018-10-18T21:55:17.450Z,69.48
2018-10-18T21:57:46.935Z,68.78
2018-10-18T22:00:17.616Z,68.59
2018-10-18T22:02:47.562Z,68.85
2018-10-18T22:05:17.109Z,68.62
2018-10-18T22:07:46.630Z,68.91
2018-10-18T22:10:16.181Z,68.45
2018-10-18T22:12:45.670Z,68.90
2018-10-18T22:15:15.214Z,68.09
2018-10-18T22:17:44.738Z,68.23
2018-10-18T22:20:14.239Z,67.31
2018-10-18T22:22:43.792Z,66.88
2018-10-18T22:25:13.283Z,66.49
2018-10-18T22:27:42.819Z,66.88
2018-10-18T22:30:12.350Z,66.97
2018-10-18T22:32:41.911Z,66.88
2018-10-18T22:35:11.518Z,66.13
2018-10-18T22:37:41.046Z,66.42
2018-10-18T22:40:10.771Z,65.97
2018-10-18T22:42:40.376Z,65.73
2018-10-18T22:45:10.002Z,65.30
2018-10-18T22:47:39.495Z,66.29
2018-10-18T22:50:09.044Z,66.37
2018-10-18T22:52:38.611Z,65.79
2018-10-18T22:55:08.187Z,66.11
2018-10-18T22:57:37.678Z,65.80
2018-10-18T23:00:08.467Z,66.71
2018-10-18T23:02:38.006Z,66.10
2018-10-18T23:05:07.734Z,66.02
2018-10-18T23:07:37.290Z,66.77
2018-10-18T23:10:07.259Z,66.96
2018-10-18T23:12:36.774Z,66.71
2018-10-18T23:15:08.266Z,66.72
2018-10-18T23:17:37.834Z,66.22
2018-10-18T23:20:08.291Z,66.83
2018-10-18T23:22:37.815Z,66.33
2018-10-18T23:25:07.542Z,66.49
2018-10-18T23:27:37.142Z,66.79
2018-10-18T23:30:07.764Z,67.17
2018-10-18T23:32:37.324Z,66.91
2018-10-18T23:35:07.191Z,66.71
2018-10-18T23:37:36.795Z,67.35
2018-10-18T23:40:06.474Z,67.32
2018-10-18T23:42:35.974Z,67.66
2018-10-18T23:45:06.256Z,66.89
2018-10-18T23:47:35.802Z,67.34
2018-10-18T23:50:05.486Z,67.80
2018-10-18T23:52:35.295Z,67.60
2018-10-18T23:55:04.940Z,67.48
2018-10-18T23:57:34.500Z,68.10
